createdAt,value
2023-02-28T00:00:05.288Z,-0.39
2023-02-28T00:00:37.980Z,-0.42
2023-02-28T00:01:10.634Z,-0.42
2023-02-28T00:01:43.304Z,-0.40
2023-02-28T00:02:16.041Z,-0.43
2023-02-28T00:02:48.712Z,-0.43
2023-02-28T00:03:21.426Z,-0.44
2023-02-28T00:03:54.078Z,-0.47
2023-02-28T00:04:26.754Z,-0.47
2023-02-28T00:04:59.435Z,-0.49
2023-02-28T00:05:32.097Z,-0.52
2023-02-28T00:06:04.765Z,-0.52
2023-02-28T00:06:37.468Z,-0.52
2023-02-28T00:07:10.111Z,-0.54
2023-02-28T00:07:42.779Z,-0.54
2023-02-28T00:08:15.437Z,-0.52
2023-02-28T00:08:48.118Z,-0.52
2023-02-28T00:09:20.757Z,-0.57
2023-02-28T00:09:53.434Z,-0.55
2023-02-28T00:10:26.220Z,-0.55
2023-02-28T00:10:58.885Z,-0.52
2023-02-28T00:11:31.861Z,-0.54
2023-02-28T00:11:58.117Z,-0.55
2023-02-28T00:12:30.789Z,-0.52
2023-02-28T00:13:03.463Z,-0.55
2023-02-28T00:13:36.137Z,-0.54
2023-02-28T00:14:08.826Z,-0.55
2023-02-28T00:14:41.522Z,-0.55
2023-02-28T00:15:14.195Z,-0.57
2023-02-28T00:15:46.883Z,-0.58
2023-02-28T00:16:19.631Z,-0.58
2023-02-28T00:16:50.704Z,-0.62
2023-02-28T00:17:23.358Z,-0.61
2023-02-28T00:17:56.030Z,-0.62
2023-02-28T00:18:31.341Z,-0.62
2023-02-28T00:18:57.657Z,-0.62
2023-02-28T00:19:30.319Z,-0.64
2023-02-28T00:20:03.006Z,-0.64
2023-02-28T00:20:35.686Z,-0.62
2023-02-28T00:21:08.350Z,-0.62
2023-02-28T00:21:41.049Z,-0.61
2023-02-28T00:22:13.700Z,-0.61
2023-02-28T00:22:46.374Z,-0.60
2023-02-28T00:23:19.043Z,-0.58
2023-02-28T00:23:51.808Z,-0.61
2023-02-28T00:24:24.475Z,-0.60
2023-02-28T00:24:57.170Z,-0.62
2023-02-28T00:25:29.844Z,-0.64
2023-02-28T00:26:02.510Z,-0.64
2023-02-28T00:26:35.183Z,-0.64
2023-02-28T00:27:07.856Z,-0.65
2023-02-28T00:27:40.525Z,-0.65
2023-02-28T00:28:13.195Z,-0.70
2023-02-28T00:28:45.872Z,-0.70
2023-02-28T00:29:18.525Z,-0.73
2023-02-28T00:29:51.216Z,-0.76
2023-02-28T00:30:23.875Z,-0.79
2023-02-28T00:30:56.636Z,-0.82
2023-02-28T00:31:29.700Z,-0.86
2023-02-28T00:31:56.064Z,-0.86
2023-02-28T00:32:28.714Z,-0.92
2023-02-28T00:33:01.393Z,-0.94
2023-02-28T00:33:34.110Z,-0.94
2023-02-28T00:34:06.759Z,-0.94
2023-02-28T00:34:39.432Z,-0.95
2023-02-28T00:35:12.104Z,-0.95
2023-02-28T00:35:44.795Z,-0.97
2023-02-28T00:36:17.448Z,-0.98
2023-02-28T00:36:50.149Z,-0.98
2023-02-28T00:37:22.815Z,-0.99
2023-02-28T00:37:55.479Z,-1.01
2023-02-28T00:38:28.157Z,-0.99
2023-02-28T00:39:00.832Z,-0.99
2023-02-28T00:39:33.511Z,-1.02
2023-02-28T00:40:06.183Z,-1.02
2023-02-28T00:40:38.856Z,-1.02
2023-02-28T00:41:11.520Z,-1.04
2023-02-28T00:41:44.187Z,-1.02
2023-02-28T00:42:16.861Z,-1.01
2023-02-28T00:42:49.542Z,-1.04
2023-02-28T00:43:22.204Z,-1.04
2023-02-28T00:43:54.875Z,-1.09
2023-02-28T00:44:27.715Z,-1.09
2023-02-28T00:45:00.406Z,-1.09
2023-02-28T00:45:33.088Z,-1.10
2023-02-28T00:46:05.832Z,-1.10
2023-02-28T00:46:38.488Z,-1.15
2023-02-28T00:47:11.160Z,-1.15
2023-02-28T00:47:43.931Z,-1.16
2023-02-28T00:48:16.806Z,-1.13
2023-02-28T00:48:49.477Z,-1.16
2023-02-28T00:49:22.150Z,-1.17
2023-02-28T00:49:54.842Z,-1.19
2023-02-28T00:50:27.520Z,-1.22
2023-02-28T00:51:00.187Z,-1.20
2023-02-28T00:51:32.858Z,-1.22
2023-02-28T00:52:05.560Z,-1.20
2023-02-28T00:52:38.211Z,-1.23
2023-02-28T00:53:10.889Z,-1.23
2023-02-28T00:53:43.573Z,-1.22
2023-02-28T00:54:16.252Z,-1.22
2023-02-28T00:54:48.916Z,-1.20
2023-02-28T00:55:21.617Z,-1.22
2023-02-28T00:55:54.279Z,-1.19
2023-02-28T00:56:26.923Z,-1.19
2023-02-28T00:56:59.599Z,-1.17
2023-02-28T00:57:32.261Z,-1.15
2023-02-28T00:58:04.925Z,-1.15
2023-02-28T00:58:37.598Z,-1.10
2023-02-28T00:59:10.261Z,-1.07
2023-02-28T00:59:42.931Z,-1.05
2023-02-28T01:00:15.605Z,-1.02
2023-02-28T01:00:48.277Z,-1.02
2023-02-28T01:01:20.987Z,-0.99
2023-02-28T01:01:53.647Z,-1.01
2023-02-28T01:02:26.310Z,-0.99
2023-02-28T01:02:58.976Z,-0.97
2023-02-28T01:03:31.655Z,-0.95
2023-02-28T01:04:04.359Z,-0.95
2023-02-28T01:04:37.122Z,-0.95
2023-02-28T01:05:09.826Z,-0.91
2023-02-28T01:05:42.484Z,-0.97
2023-02-28T01:06:15.151Z,-0.97
2023-02-28T01:06:47.819Z,-0.98
2023-02-28T01:07:20.516Z,-0.97
2023-02-28T01:07:53.179Z,-0.99
2023-02-28T01:08:25.843Z,-0.97
2023-02-28T01:08:58.509Z,-0.98
2023-02-28T01:09:31.189Z,-0.95
2023-02-28T01:10:03.886Z,-0.97
2023-02-28T01:10:36.553Z,-0.99
2023-02-28T01:11:09.224Z,-1.01
2023-02-28T01:11:41.900Z,-1.02
2023-02-28T01:12:14.581Z,-1.02
2023-02-28T01:12:47.266Z,-1.02
2023-02-28T01:13:19.937Z,-1.02
2023-02-28T01:13:52.608Z,-1.04
2023-02-28T01:14:25.294Z,-1.02
2023-02-28T01:14:57.988Z,-1.02
2023-02-28T01:15:30.736Z,-1.04
2023-02-28T01:16:03.465Z,-1.05
2023-02-28T01:16:36.137Z,-1.07
2023-02-28T01:17:08.798Z,-1.07
2023-02-28T01:17:41.468Z,-1.07
2023-02-28T01:18:14.137Z,-1.04
2023-02-28T01:18:46.805Z,-1.04
2023-02-28T01:19:19.472Z,-1.02
2023-02-28T01:19:52.148Z,-1.02
2023-02-28T01:20:24.832Z,-1.02
2023-02-28T01:20:57.504Z,-1.02
2023-02-28T01:21:30.555Z,-1.02
2023-02-28T01:21:56.824Z,-1.01
2023-02-28T01:22:29.518Z,-1.04
2023-02-28T01:23:02.170Z,-1.02
2023-02-28T01:23:34.830Z,-1.02
2023-02-28T01:24:07.503Z,-0.99
2023-02-28T01:24:40.161Z,-1.04
2023-02-28T01:25:12.908Z,-1.02
2023-02-28T01:25:45.659Z,-1.05
2023-02-28T01:26:18.332Z,-1.13
2023-02-28T01:26:50.992Z,-1.17
2023-02-28T01:27:23.683Z,-1.23
2023-02-28T01:27:56.388Z,-1.30
2023-02-28T01:28:29.070Z,-1.34
2023-02-28T01:29:01.730Z,-1.38
2023-02-28T01:29:34.431Z,-1.41
2023-02-28T01:30:07.107Z,-1.45
2023-02-28T01:30:39.771Z,-1.45
2023-02-28T01:31:12.526Z,-1.48
2023-02-28T01:31:45.246Z,-1.48
2023-02-28T01:32:17.945Z,-1.48
2023-02-28T01:32:50.600Z,-1.51
2023-02-28T01:33:23.268Z,-1.54
2023-02-28T01:33:55.944Z,-1.56
2023-02-28T01:34:28.625Z,-1.58
2023-02-28T01:35:01.300Z,-1.58
2023-02-28T01:35:34.012Z,-1.56
2023-02-28T01:36:06.689Z,-1.56
2023-02-28T01:36:39.338Z,-1.56
2023-02-28T01:37:12.000Z,-1.55
2023-02-28T01:37:44.698Z,-1.55
2023-02-28T01:38:22.505Z,-1.55
2023-02-28T01:38:49.428Z,-1.54
2023-02-28T01:39:15.605Z,-1.55
2023-02-28T01:39:48.295Z,-1.56
2023-02-28T01:40:20.965Z,-1.58
2023-02-28T01:40:53.620Z,-1.58
2023-02-28T01:41:26.351Z,-1.58
2023-02-28T01:41:58.989Z,-1.59
2023-02-28T01:42:31.663Z,-1.58
2023-02-28T01:43:04.340Z,-1.61
2023-02-28T01:43:37.004Z,-1.61
2023-02-28T01:44:09.677Z,-1.59
2023-02-28T01:44:42.354Z,-1.55
2023-02-28T01:45:15.050Z,-1.55
2023-02-28T01:45:47.733Z,-1.56
2023-02-28T01:46:20.467Z,-1.55
2023-02-28T01:46:53.113Z,-1.56
2023-02-28T01:47:25.787Z,-1.58
2023-02-28T01:47:58.455Z,-1.56
2023-02-28T01:48:31.139Z,-1.58
2023-02-28T01:49:03.809Z,-1.59
2023-02-28T01:49:36.481Z,-1.58
2023-02-28T01:50:09.145Z,-1.61
2023-02-28T01:50:41.842Z,-1.61
2023-02-28T01:51:14.523Z,-1.64
2023-02-28T01:51:47.194Z,-1.64
2023-02-28T01:52:19.858Z,-1.62
2023-02-28T01:52:52.543Z,-1.67
2023-02-28T01:53:25.180Z,-1.67
2023-02-28T01:53:57.853Z,-1.70
2023-02-28T01:54:30.529Z,-1.72
2023-02-28T01:55:03.201Z,-1.72
2023-02-28T01:55:35.877Z,-1.74
2023-02-28T01:56:08.565Z,-1.74
2023-02-28T01:56:41.216Z,-1.76
2023-02-28T01:57:13.905Z,-1.80
2023-02-28T01:57:46.570Z,-1.80
2023-02-28T01:58:19.243Z,-1.82
2023-02-28T01:58:51.931Z,-1.84
2023-02-28T01:59:24.594Z,-1.85
2023-02-28T01:59:57.270Z,-1.84
2023-02-28T02:00:29.941Z,-1.85
2023-02-28T02:01:02.639Z,-1.85
2023-02-28T02:01:35.332Z,-1.85
2023-02-28T02:02:08.123Z,-1.82
2023-02-28T02:02:40.810Z,-1.82
2023-02-28T02:03:14.673Z,-1.82
2023-02-28T02:03:41.767Z,-1.84
2023-02-28T02:04:14.469Z,-1.84
2023-02-28T02:04:47.140Z,-1.84
2023-02-28T02:05:19.818Z,-1.85
2023-02-28T02:05:52.513Z,-1.84
2023-02-28T02:06:25.209Z,-1.85
2023-02-28T02:06:57.872Z,-1.87
2023-02-28T02:07:30.540Z,-1.87
2023-02-28T02:08:03.240Z,-1.87
2023-02-28T02:08:35.870Z,-1.90
2023-02-28T02:09:08.539Z,-1.88
2023-02-28T02:09:41.236Z,-1.88
2023-02-28T02:10:13.891Z,-1.90
2023-02-28T02:10:46.562Z,-1.90
2023-02-28T02:11:19.251Z,-1.92
2023-02-28T02:11:51.914Z,-1.94
2023-02-28T02:12:24.588Z,-1.94
2023-02-28T02:12:57.261Z,-1.94
2023-02-28T02:13:29.930Z,-1.94
2023-02-28T02:14:02.613Z,-1.97
2023-02-28T02:14:35.276Z,-1.95
2023-02-28T02:15:07.939Z,-1.95
2023-02-28T02:15:40.655Z,-1.95
2023-02-28T02:16:13.367Z,-1.98
2023-02-28T02:16:46.022Z,-1.97
2023-02-28T02:17:18.688Z,-1.98
2023-02-28T02:17:51.424Z,-1.98
2023-02-28T02:18:24.095Z,-1.98
2023-02-28T02:18:56.755Z,-2.00
2023-02-28T02:19:29.443Z,-2.02
2023-02-28T02:20:02.096Z,-2.03
2023-02-28T02:20:34.757Z,-2.00
2023-02-28T02:21:07.424Z,-2.02
2023-02-28T02:21:40.094Z,-2.00
2023-02-28T02:22:12.758Z,-2.00
2023-02-28T02:22:45.442Z,-2.00
2023-02-28T02:23:18.133Z,-2.02
2023-02-28T02:23:50.778Z,-2.02
2023-02-28T02:24:23.450Z,-2.05
2023-02-28T02:24:56.121Z,-2.05
2023-02-28T02:25:28.805Z,-2.02
2023-02-28T02:26:01.508Z,-2.03
2023-02-28T02:26:34.177Z,-2.03
2023-02-28T02:27:06.869Z,-2.08
2023-02-28T02:27:39.526Z,-2.10
2023-02-28T02:28:12.200Z,-2.12
2023-02-28T02:28:44.857Z,-2.18
2023-02-28T02:29:17.538Z,-2.21
2023-02-28T02:29:50.198Z,-2.27
2023-02-28T02:30:22.868Z,-2.26
2023-02-28T02:30:55.534Z,-2.27
2023-02-28T02:31:28.528Z,-2.29
2023-02-28T02:31:54.911Z,-2.27
2023-02-28T02:32:27.767Z,-2.29
2023-02-28T02:33:00.460Z,-2.27
2023-02-28T02:33:33.138Z,-2.32
2023-02-28T02:34:05.795Z,-2.35
2023-02-28T02:34:38.467Z,-2.37
2023-02-28T02:35:11.142Z,-2.39
2023-02-28T02:35:43.860Z,-2.37
2023-02-28T02:36:16.494Z,-2.39
2023-02-28T02:36:49.164Z,-2.39
2023-02-28T02:37:21.871Z,-2.39
2023-02-28T02:37:54.537Z,-2.40
2023-02-28T02:38:27.238Z,-2.39
2023-02-28T02:38:59.905Z,-2.39
2023-02-28T02:39:32.564Z,-2.42
2023-02-28T02:40:05.232Z,-2.42
2023-02-28T02:40:37.906Z,-2.42
2023-02-28T02:41:10.604Z,-2.48
2023-02-28T02:41:43.255Z,-2.42
2023-02-28T02:42:15.932Z,-2.43
2023-02-28T02:42:48.611Z,-2.42
2023-02-28T02:43:21.293Z,-2.42
2023-02-28T02:43:53.967Z,-2.42
2023-02-28T02:44:26.630Z,-2.40
2023-02-28T02:44:59.299Z,-2.45
2023-02-28T02:45:31.988Z,-2.43
2023-02-28T02:46:03.067Z,-2.43
2023-02-28T02:46:35.826Z,-2.45
2023-02-28T02:47:08.521Z,-2.46
2023-02-28T02:47:41.202Z,-2.49
2023-02-28T02:48:13.865Z,-2.50
2023-02-28T02:48:46.530Z,-2.49
2023-02-28T02:49:19.198Z,-2.48
2023-02-28T02:49:51.859Z,-2.48
2023-02-28T02:50:24.535Z,-2.46
2023-02-28T02:50:57.224Z,-2.45
2023-02-28T02:51:30.224Z,-2.45
2023-02-28T02:51:56.560Z,-2.42
2023-02-28T02:52:29.229Z,-2.43
2023-02-28T02:53:01.915Z,-2.40
2023-02-28T02:53:34.617Z,-2.45
2023-02-28T02:54:07.265Z,-2.48
2023-02-28T02:54:39.939Z,-2.52
2023-02-28T02:55:12.614Z,-2.48
2023-02-28T02:55:45.283Z,-2.52
2023-02-28T02:56:17.943Z,-2.52
2023-02-28T02:56:50.611Z,-2.50
2023-02-28T02:57:23.278Z,-2.52
2023-02-28T02:57:55.954Z,-2.50
2023-02-28T02:58:28.678Z,-2.49
2023-02-28T02:59:01.356Z,-2.52
2023-02-28T02:59:34.025Z,-2.53
2023-02-28T03:00:06.705Z,-2.50
2023-02-28T03:00:39.415Z,-2.52
2023-02-28T03:01:12.148Z,-2.52
2023-02-28T03:01:44.781Z,-2.53
2023-02-28T03:02:17.448Z,-2.53
2023-02-28T03:02:50.130Z,-2.56
2023-02-28T03:03:22.952Z,-2.53
2023-02-28T03:03:55.733Z,-2.50
2023-02-28T03:04:28.392Z,-2.50
2023-02-28T03:05:01.083Z,-2.49
2023-02-28T03:05:33.739Z,-2.48
2023-02-28T03:06:06.410Z,-2.46
2023-02-28T03:06:39.076Z,-2.49
2023-02-28T03:07:11.752Z,-2.46
2023-02-28T03:07:44.420Z,-2.46
2023-02-28T03:08:17.126Z,-2.49
2023-02-28T03:08:49.823Z,-2.48
2023-02-28T03:09:22.471Z,-2.49
2023-02-28T03:09:55.133Z,-2.52
2023-02-28T03:10:27.801Z,-2.53
2023-02-28T03:11:00.471Z,-2.53
2023-02-28T03:11:33.133Z,-2.53
2023-02-28T03:12:05.803Z,-2.55
2023-02-28T03:12:36.887Z,-2.55
2023-02-28T03:13:09.556Z,-2.58
2023-02-28T03:13:42.226Z,-2.60
2023-02-28T03:14:14.909Z,-2.63
2023-02-28T03:14:47.579Z,-2.66
2023-02-28T03:15:20.246Z,-2.67
2023-02-28T03:15:52.918Z,-2.71
2023-02-28T03:16:25.652Z,-2.73
2023-02-28T03:16:58.337Z,-2.78
2023-02-28T03:17:31.014Z,-2.78
2023-02-28T03:18:03.701Z,-2.81
2023-02-28T03:18:36.389Z,-2.81
2023-02-28T03:19:09.037Z,-2.84
2023-02-28T03:19:41.735Z,-2.85
2023-02-28T03:20:14.413Z,-2.88
2023-02-28T03:20:47.084Z,-2.92
2023-02-28T03:21:19.761Z,-2.96
2023-02-28T03:21:52.431Z,-2.97
2023-02-28T03:22:25.103Z,-3.00
2023-02-28T03:22:57.785Z,-3.03
2023-02-28T03:23:30.445Z,-3.02
2023-02-28T03:24:03.145Z,-3.03
2023-02-28T03:24:35.791Z,-3.06
2023-02-28T03:25:08.462Z,-3.07
2023-02-28T03:25:41.145Z,-3.07
2023-02-28T03:26:13.816Z,-3.10
2023-02-28T03:26:46.494Z,-3.10
2023-02-28T03:27:19.161Z,-3.10
2023-02-28T03:27:51.829Z,-3.10
2023-02-28T03:28:24.510Z,-3.14
2023-02-28T03:28:57.178Z,-3.12
2023-02-28T03:29:29.855Z,-3.14
2023-02-28T03:30:02.524Z,-3.15
2023-02-28T03:30:35.234Z,-3.15
2023-02-28T03:31:07.880Z,-3.15
2023-02-28T03:31:40.590Z,-3.12
2023-02-28T03:32:13.397Z,-3.15
2023-02-28T03:32:46.100Z,-3.15
2023-02-28T03:33:18.775Z,-3.15
2023-02-28T03:33:51.450Z,-3.15
2023-02-28T03:34:24.125Z,-3.15
2023-02-28T03:34:56.822Z,-3.18
2023-02-28T03:35:29.573Z,-3.17
2023-02-28T03:36:02.296Z,-3.17
2023-02-28T03:36:34.965Z,-3.18
2023-02-28T03:37:07.694Z,-3.18
2023-02-28T03:37:40.333Z,-3.17
2023-02-28T03:38:13.037Z,-3.17
2023-02-28T03:38:45.713Z,-3.21
2023-02-28T03:39:18.408Z,-3.21
2023-02-28T03:39:51.052Z,-3.21
2023-02-28T03:40:23.714Z,-3.24
2023-02-28T03:40:56.395Z,-3.21
2023-02-28T03:41:29.339Z,-3.24
2023-02-28T03:41:55.693Z,-3.25
2023-02-28T03:42:28.367Z,-3.25
2023-02-28T03:43:01.034Z,-3.28
2023-02-28T03:43:33.703Z,-3.28
2023-02-28T03:44:06.387Z,-3.28
2023-02-28T03:44:39.047Z,-3.30
2023-02-28T03:45:11.729Z,-3.28
2023-02-28T03:45:44.435Z,-3.28
2023-02-28T03:46:17.213Z,-3.27
2023-02-28T03:46:49.925Z,-3.27
2023-02-28T03:47:22.592Z,-3.25
2023-02-28T03:47:55.265Z,-3.27
2023-02-28T03:48:27.930Z,-3.25
2023-02-28T03:49:00.586Z,-3.25
2023-02-28T03:49:33.253Z,-3.25
2023-02-28T03:50:05.959Z,-3.27
2023-02-28T03:50:38.634Z,-3.27
2023-02-28T03:51:11.320Z,-3.25
2023-02-28T03:51:43.983Z,-3.25
2023-02-28T03:52:16.663Z,-3.27
2023-02-28T03:52:49.327Z,-3.30
2023-02-28T03:53:22.015Z,-3.31
2023-02-28T03:53:54.691Z,-3.31
2023-02-28T03:54:27.403Z,-3.35
2023-02-28T03:55:00.043Z,-3.31
2023-02-28T03:55:32.735Z,-3.36
2023-02-28T03:56:05.408Z,-3.39
2023-02-28T03:56:38.094Z,-3.38
2023-02-28T03:57:10.778Z,-3.41
2023-02-28T03:57:43.427Z,-3.42
2023-02-28T03:58:16.113Z,-3.45
2023-02-28T03:58:48.785Z,-3.43
2023-02-28T03:59:21.455Z,-3.43
2023-02-28T03:59:54.114Z,-3.43
2023-02-28T04:00:27.734Z,-3.46
2023-02-28T04:00:53.932Z,-3.46
2023-02-28T04:01:26.939Z,-3.46
2023-02-28T04:01:53.386Z,-3.46
2023-02-28T04:02:26.020Z,-3.45
2023-02-28T04:02:58.690Z,-3.46
2023-02-28T04:03:31.381Z,-3.42
2023-02-28T04:04:04.222Z,-3.39
2023-02-28T04:04:37.076Z,-3.36
2023-02-28T04:05:09.777Z,-3.33
2023-02-28T04:05:42.455Z,-3.33
2023-02-28T04:06:15.144Z,-3.33
2023-02-28T04:06:47.817Z,-3.33
2023-02-28T04:07:20.487Z,-3.35
2023-02-28T04:07:53.172Z,-3.36
2023-02-28T04:08:25.848Z,-3.39
2023-02-28T04:08:58.508Z,-3.39
2023-02-28T04:09:31.191Z,-3.41
2023-02-28T04:10:03.848Z,-3.41
2023-02-28T04:10:36.518Z,-3.42
2023-02-28T04:11:09.184Z,-3.42
2023-02-28T04:11:41.883Z,-3.42
2023-02-28T04:12:14.575Z,-3.41
2023-02-28T04:12:47.239Z,-3.43
2023-02-28T04:13:19.913Z,-3.41
2023-02-28T04:13:52.593Z,-3.43
2023-02-28T04:14:25.258Z,-3.45
2023-02-28T04:14:57.938Z,-3.45
2023-02-28T04:15:29.021Z,-3.41
2023-02-28T04:16:01.803Z,-3.42
2023-02-28T04:16:35.842Z,-3.42
2023-02-28T04:17:02.227Z,-3.41
2023-02-28T04:17:34.895Z,-3.43
2023-02-28T04:18:07.580Z,-3.41
2023-02-28T04:18:40.245Z,-3.42
2023-02-28T04:19:12.904Z,-3.43
2023-02-28T04:19:45.583Z,-3.43
2023-02-28T04:20:18.252Z,-3.42
2023-02-28T04:20:50.920Z,-3.45
2023-02-28T04:21:24.664Z,-3.45
2023-02-28T04:21:51.716Z,-3.46
2023-02-28T04:22:24.402Z,-3.46
2023-02-28T04:22:57.072Z,-3.48
2023-02-28T04:23:29.740Z,-3.48
2023-02-28T04:24:02.415Z,-3.52
2023-02-28T04:24:35.093Z,-3.53
2023-02-28T04:25:07.748Z,-3.52
2023-02-28T04:25:40.412Z,-3.53
2023-02-28T04:26:13.084Z,-3.56
2023-02-28T04:26:45.758Z,-3.57
2023-02-28T04:27:18.436Z,-3.57
2023-02-28T04:27:51.135Z,-3.57
2023-02-28T04:28:23.799Z,-3.60
2023-02-28T04:28:56.473Z,-3.62
2023-02-28T04:29:29.146Z,-3.64
2023-02-28T04:30:01.806Z,-3.67
2023-02-28T04:30:34.479Z,-3.67
2023-02-28T04:31:07.178Z,-3.67
2023-02-28T04:31:39.935Z,-3.69
2023-02-28T04:32:12.741Z,-3.71
2023-02-28T04:32:45.519Z,-3.72
2023-02-28T04:33:18.182Z,-3.72
2023-02-28T04:33:50.855Z,-3.72
2023-02-28T04:34:23.541Z,-3.75
2023-02-28T04:34:56.208Z,-3.75
2023-02-28T04:35:28.936Z,-3.75
2023-02-28T04:36:01.634Z,-3.75
2023-02-28T04:36:34.269Z,-3.75
2023-02-28T04:37:13.405Z,-3.78
2023-02-28T04:37:39.069Z,-3.75
2023-02-28T04:38:05.233Z,-3.76
2023-02-28T04:38:37.907Z,-3.79
2023-02-28T04:39:10.585Z,-3.78
2023-02-28T04:39:43.305Z,-3.78
2023-02-28T04:40:15.937Z,-3.76
2023-02-28T04:40:48.608Z,-3.76
2023-02-28T04:41:21.272Z,-3.78
2023-02-28T04:41:53.939Z,-3.78
2023-02-28T04:42:26.623Z,-3.78
2023-02-28T04:42:59.292Z,-3.78
2023-02-28T04:43:31.968Z,-3.78
2023-02-28T04:44:04.636Z,-3.82
2023-02-28T04:44:37.312Z,-3.81
2023-02-28T04:45:09.977Z,-3.81
2023-02-28T04:45:42.675Z,-3.82
2023-02-28T04:46:15.340Z,-3.83
2023-02-28T04:46:48.002Z,-3.85
2023-02-28T04:47:20.708Z,-3.85
2023-02-28T04:47:53.375Z,-3.86
2023-02-28T04:48:26.038Z,-3.88
2023-02-28T04:48:58.712Z,-3.90
2023-02-28T04:49:31.394Z,-3.86
2023-02-28T04:50:04.094Z,-3.86
2023-02-28T04:50:36.789Z,-3.85
2023-02-28T04:51:09.451Z,-3.86
2023-02-28T04:51:42.120Z,-3.82
2023-02-28T04:52:13.217Z,-3.82
2023-02-28T04:52:45.895Z,-3.79
2023-02-28T04:53:18.571Z,-3.75
2023-02-28T04:53:51.240Z,-3.72
2023-02-28T04:54:23.907Z,-3.72
2023-02-28T04:54:56.599Z,-3.66
2023-02-28T04:55:29.248Z,-3.64
2023-02-28T04:56:01.900Z,-3.64
2023-02-28T04:56:34.567Z,-3.62
2023-02-28T04:57:07.252Z,-3.64
2023-02-28T04:57:39.931Z,-3.64
2023-02-28T04:58:12.615Z,-3.64
2023-02-28T04:58:45.315Z,-3.66
2023-02-28T04:59:16.391Z,-3.67
2023-02-28T04:59:49.069Z,-3.69
2023-02-28T05:00:21.755Z,-3.67
2023-02-28T05:00:54.420Z,-3.69
2023-02-28T05:01:27.481Z,-3.69
2023-02-28T05:01:53.920Z,-3.72
2023-02-28T05:02:26.656Z,-3.75
2023-02-28T05:02:59.326Z,-3.78
2023-02-28T05:03:31.985Z,-3.82
2023-02-28T05:04:04.648Z,-3.85
2023-02-28T05:04:37.380Z,-3.86
2023-02-28T05:05:10.110Z,-3.90
2023-02-28T05:05:42.760Z,-3.91
2023-02-28T05:06:15.444Z,-3.91
2023-02-28T05:06:48.111Z,-3.93
2023-02-28T05:07:19.195Z,-3.94
2023-02-28T05:07:51.883Z,-3.97
2023-02-28T05:08:24.551Z,-3.96
2023-02-28T05:08:57.217Z,-3.97
2023-02-28T05:09:29.900Z,-3.99
2023-02-28T05:10:02.591Z,-4.00
2023-02-28T05:10:35.236Z,-4.00
2023-02-28T05:11:07.905Z,-4.04
2023-02-28T05:11:40.650Z,-4.04
2023-02-28T05:12:13.311Z,-4.06
2023-02-28T05:12:45.990Z,-4.06
2023-02-28T05:13:18.689Z,-4.10
2023-02-28T05:13:51.339Z,-4.07
2023-02-28T05:14:24.016Z,-4.11
2023-02-28T05:14:56.696Z,-4.11
2023-02-28T05:15:29.355Z,-4.11
2023-02-28T05:16:02.078Z,-4.14
2023-02-28T05:16:34.767Z,-4.11
2023-02-28T05:17:07.423Z,-4.14
2023-02-28T05:17:40.126Z,-4.15
2023-02-28T05:18:12.797Z,-4.18
2023-02-28T05:18:45.474Z,-4.20
2023-02-28T05:19:18.149Z,-4.20
2023-02-28T05:19:50.824Z,-4.21
2023-02-28T05:20:21.912Z,-4.21
2023-02-28T05:20:54.582Z,-4.22
2023-02-28T05:21:27.567Z,-4.20
2023-02-28T05:21:58.377Z,-4.20
2023-02-28T05:22:31.048Z,-4.21
2023-02-28T05:23:03.739Z,-4.20
2023-02-28T05:23:34.826Z,-4.18
2023-02-28T05:24:07.517Z,-4.18
2023-02-28T05:24:40.155Z,-4.18
2023-02-28T05:25:12.844Z,-4.18
2023-02-28T05:25:45.507Z,-4.21
2023-02-28T05:26:18.207Z,-4.22
2023-02-28T05:26:50.862Z,-4.21
2023-02-28T05:27:23.534Z,-4.22
2023-02-28T05:27:56.221Z,-4.21
2023-02-28T05:28:28.902Z,-4.20
2023-02-28T05:29:01.577Z,-4.18
2023-02-28T05:29:34.270Z,-4.18
2023-02-28T05:30:06.942Z,-4.18
2023-02-28T05:30:39.610Z,-4.20
2023-02-28T05:31:12.309Z,-4.20
2023-02-28T05:31:44.979Z,-4.21
2023-02-28T05:32:17.660Z,-4.20
2023-02-28T05:32:50.334Z,-4.18
2023-02-28T05:33:23.013Z,-4.21
2023-02-28T05:33:55.696Z,-4.20
2023-02-28T05:34:28.349Z,-4.20
2023-02-28T05:35:01.004Z,-4.21
2023-02-28T05:35:33.726Z,-4.20
2023-02-28T05:36:06.370Z,-4.22
2023-02-28T05:36:39.036Z,-4.20
2023-02-28T05:37:11.702Z,-4.20
2023-02-28T05:37:44.373Z,-4.21
2023-02-28T05:38:17.059Z,-4.21
2023-02-28T05:38:49.740Z,-4.20
2023-02-28T05:39:22.419Z,-4.17
2023-02-28T05:39:55.088Z,-4.18
2023-02-28T05:40:27.781Z,-4.18
2023-02-28T05:41:00.426Z,-4.18
2023-02-28T05:41:33.093Z,-4.14
2023-02-28T05:42:05.780Z,-4.14
2023-02-28T05:42:38.469Z,-4.11
2023-02-28T05:43:11.152Z,-4.10
2023-02-28T05:43:43.799Z,-4.10
2023-02-28T05:44:16.467Z,-4.07
2023-02-28T05:44:49.139Z,-4.10
2023-02-28T05:45:21.835Z,-4.07
2023-02-28T05:45:54.650Z,-4.07
2023-02-28T05:46:27.312Z,-4.07
2023-02-28T05:46:59.993Z,-4.06
2023-02-28T05:47:32.687Z,-4.07
2023-02-28T05:48:05.363Z,-4.11
2023-02-28T05:48:38.149Z,-4.10
2023-02-28T05:49:10.908Z,-4.10
2023-02-28T05:49:43.562Z,-4.07
2023-02-28T05:50:16.231Z,-4.07
2023-02-28T05:50:48.905Z,-4.11
2023-02-28T05:51:21.574Z,-4.11
2023-02-28T05:51:54.224Z,-4.11
2023-02-28T05:52:26.890Z,-4.11
2023-02-28T05:52:59.594Z,-4.10
2023-02-28T05:53:32.256Z,-4.11
2023-02-28T05:54:04.917Z,-4.11
2023-02-28T05:54:37.587Z,-4.11
2023-02-28T05:55:10.262Z,-4.11
2023-02-28T05:55:42.987Z,-4.12
2023-02-28T05:56:15.683Z,-4.14
2023-02-28T05:56:48.368Z,-4.12
2023-02-28T05:57:24.560Z,-4.11
2023-02-28T05:57:51.029Z,-4.10
2023-02-28T05:58:23.733Z,-4.11
2023-02-28T05:58:56.415Z,-4.10
2023-02-28T05:59:29.106Z,-4.10
2023-02-28T06:00:01.759Z,-4.11
2023-02-28T06:00:34.433Z,-4.11
2023-02-28T06:01:07.111Z,-4.14
2023-02-28T06:01:39.782Z,-4.12
2023-02-28T06:02:12.475Z,-4.12
2023-02-28T06:02:45.159Z,-4.14
2023-02-28T06:03:16.313Z,-4.12
2023-02-28T06:03:48.951Z,-4.12
2023-02-28T06:04:31.455Z,-4.14
2023-02-28T06:04:53.728Z,-4.14
2023-02-28T06:05:19.898Z,-4.17
2023-02-28T06:05:52.588Z,-4.17
2023-02-28T06:06:25.263Z,-4.18
2023-02-28T06:06:57.930Z,-4.15
2023-02-28T06:07:30.593Z,-4.17
2023-02-28T06:08:03.283Z,-4.21
2023-02-28T06:08:35.946Z,-4.20
2023-02-28T06:09:08.633Z,-4.17
2023-02-28T06:09:41.307Z,-4.18
2023-02-28T06:10:13.968Z,-4.20
2023-02-28T06:10:46.689Z,-4.17
2023-02-28T06:11:19.337Z,-4.18
2023-02-28T06:11:52.012Z,-4.17
2023-02-28T06:12:24.675Z,-4.18
2023-02-28T06:12:57.359Z,-4.18
2023-02-28T06:13:30.036Z,-4.17
2023-02-28T06:14:02.708Z,-4.17
2023-02-28T06:14:35.412Z,-4.15
2023-02-28T06:15:08.064Z,-4.17
2023-02-28T06:15:40.740Z,-4.17
2023-02-28T06:16:13.475Z,-4.15
2023-02-28T06:16:46.213Z,-4.17
2023-02-28T06:17:18.896Z,-4.18
2023-02-28T06:17:51.580Z,-4.18
2023-02-28T06:18:24.269Z,-4.15
2023-02-28T06:18:56.960Z,-4.17
2023-02-28T06:19:29.668Z,-4.18
2023-02-28T06:20:02.315Z,-4.20
2023-02-28T06:20:35.006Z,-4.18
2023-02-28T06:21:07.674Z,-4.20
2023-02-28T06:21:40.339Z,-4.18
2023-02-28T06:22:13.014Z,-4.18
2023-02-28T06:22:45.697Z,-4.14
2023-02-28T06:23:18.388Z,-4.14
2023-02-28T06:23:51.066Z,-4.12
2023-02-28T06:24:23.733Z,-4.12
2023-02-28T06:24:56.413Z,-4.11
2023-02-28T06:25:29.148Z,-4.10
2023-02-28T06:26:01.836Z,-4.06
2023-02-28T06:26:34.510Z,-4.06
2023-02-28T06:27:07.197Z,-4.03
2023-02-28T06:27:39.856Z,-4.03
2023-02-28T06:28:12.563Z,-4.01
2023-02-28T06:28:45.234Z,-4.00
2023-02-28T06:29:17.927Z,-3.99
2023-02-28T06:29:50.595Z,-3.94
2023-02-28T06:30:23.264Z,-3.94
2023-02-28T06:30:55.990Z,-3.90
2023-02-28T06:31:29.135Z,-3.88
2023-02-28T06:31:55.517Z,-3.86
2023-02-28T06:32:28.181Z,-3.82
2023-02-28T06:33:00.838Z,-3.83
2023-02-28T06:33:33.519Z,-3.81
2023-02-28T06:34:06.188Z,-3.76
2023-02-28T06:34:38.867Z,-3.71
2023-02-28T06:35:11.542Z,-3.66
2023-02-28T06:35:44.252Z,-3.64
2023-02-28T06:36:16.891Z,-3.60
2023-02-28T06:36:49.566Z,-3.59
2023-02-28T06:37:22.233Z,-3.57
2023-02-28T06:37:54.911Z,-3.57
2023-02-28T06:38:27.619Z,-3.56
2023-02-28T06:39:00.288Z,-3.54
2023-02-28T06:39:32.964Z,-3.52
2023-02-28T06:40:05.639Z,-3.49
2023-02-28T06:40:38.338Z,-3.45
2023-02-28T06:41:11.021Z,-3.45
2023-02-28T06:41:54.941Z,-3.42
2023-02-28T06:42:15.777Z,-3.41
2023-02-28T06:42:41.943Z,-3.39
2023-02-28T06:43:14.682Z,-3.38
2023-02-28T06:43:47.351Z,-3.36
2023-02-28T06:44:20.024Z,-3.36
2023-02-28T06:44:52.689Z,-3.33
2023-02-28T06:45:25.356Z,-3.31
2023-02-28T06:45:58.038Z,-3.28
2023-02-28T06:46:30.772Z,-3.27
2023-02-28T06:47:03.411Z,-3.24
2023-02-28T06:47:36.082Z,-3.24
2023-02-28T06:48:08.759Z,-3.23
2023-02-28T06:48:41.455Z,-3.21
2023-02-28T06:49:14.128Z,-3.20
2023-02-28T06:49:46.787Z,-3.15
2023-02-28T06:50:19.461Z,-3.15
2023-02-28T06:50:52.145Z,-3.12
2023-02-28T06:51:24.816Z,-3.07
2023-02-28T06:51:57.523Z,-3.06
2023-02-28T06:52:30.183Z,-3.03
2023-02-28T06:53:01.261Z,-3.03
2023-02-28T06:53:33.945Z,-2.99
2023-02-28T06:54:06.629Z,-2.94
2023-02-28T06:54:39.298Z,-2.94
2023-02-28T06:55:11.971Z,-2.88
2023-02-28T06:55:44.636Z,-2.88
2023-02-28T06:56:17.338Z,-2.85
2023-02-28T06:56:49.988Z,-2.82
2023-02-28T06:57:22.670Z,-2.81
2023-02-28T06:57:55.328Z,-2.81
2023-02-28T06:58:28.028Z,-2.79